Terminal Aerodrome Forecast
Issued by NWS

Home | Current Version | Previous Version | Text Only | Print | Product List | Glossary On
Versions: 1 2 3 4 5 6 7 8 9 10 11 12 13 14 15
000
FTAK31 PANC 022332
TAFACD
TAF
PACD 022332Z 0300/0324 14011KT P6SM VCSH SCT025 BKN035
      TEMPO 0300/0304 BKN025
     FM030600 14015G25KT P6SM -RA SCT025 OVC035
     FM031200 21010KT 6SM -RA BR SCT015 OVC025=

USA.gov is the U.S. government's official web portal to all federal, state and local government web resources and services.